createdAt,value
2018-07-07T00:00:29.725Z,0.00
2018-07-07T00:01:29.700Z,0.00
2018-07-07T00:02:29.672Z,0.00
2018-07-07T00:03:30.102Z,0.00
2018-07-07T00:04:29.662Z,0.00
2018-07-07T00:05:29.594Z,0.00
2018-07-07T00:06:30.559Z,0.00
2018-07-07T00:07:29.590Z,0.00
2018-07-07T00:08:29.513Z,0.00
2018-07-07T00:09:30.054Z,0.00
2018-07-07T00:10:29.458Z,0.00
2018-07-07T00:11:29.434Z,0.00
2018-07-07T00:12:29.606Z,0.00
2018-07-07T00:13:29.380Z,0.00
2018-07-07T00:14:29.354Z,0.00
2018-07-07T00:15:30.062Z,0.00
2018-07-07T00:16:29.352Z,0.00
2018-07-07T00:17:30.069Z,0.00
2018-07-07T00:18:29.290Z,0.00
2018-07-07T00:19:29.227Z,0.00
2018-07-07T00:20:29.201Z,0.00
2018-07-07T00:21:29.175Z,0.00
2018-07-07T00:22:30.057Z,0.00
2018-07-07T00:23:29.157Z,0.00
2018-07-07T00:24:29.095Z,0.00
2018-07-07T00:25:29.107Z,0.00
2018-07-07T00:26:29.034Z,0.00
2018-07-07T00:27:29.018Z,0.00
2018-07-07T00:28:29.026Z,0.00
2018-07-07T00:29:28.956Z,0.00
2018-07-07T00:30:29.556Z,0.00
2018-07-07T00:31:28.902Z,0.00
2018-07-07T00:32:28.873Z,0.00
2018-07-07T00:33:28.895Z,0.00
2018-07-07T00:34:29.560Z,0.00
2018-07-07T00:35:28.793Z,0.00
2018-07-07T00:36:29.558Z,0.00
2018-07-07T00:37:28.789Z,0.00
2018-07-07T00:38:28.714Z,0.00
2018-07-07T00:39:29.559Z,0.00
2018-07-07T00:40:28.665Z,0.00
2018-07-07T00:41:28.650Z,0.00
2018-07-07T00:42:29.108Z,0.00
2018-07-07T00:43:28.588Z,0.00
2018-07-07T00:44:28.568Z,0.00
2018-07-07T00:45:28.575Z,0.00
2018-07-07T00:46:28.501Z,0.00
2018-07-07T00:47:28.487Z,0.00
2018-07-07T00:48:28.456Z,0.00
2018-07-07T00:49:28.422Z,0.00
2018-07-07T00:50:28.443Z,0.00
2018-07-07T00:51:28.428Z,0.00
2018-07-07T00:52:29.062Z,0.00
2018-07-07T00:53:28.331Z,0.00
2018-07-07T00:54:28.322Z,0.00
2018-07-07T00:55:28.264Z,0.00
2018-07-07T00:56:28.300Z,0.00
2018-07-07T00:57:29.062Z,0.00
2018-07-07T00:58:28.184Z,0.00
2018-07-07T00:59:28.166Z,0.00
2018-07-07T01:00:28.125Z,0.00
2018-07-07T01:01:28.146Z,0.00
2018-07-07T01:02:29.067Z,0.00
2018-07-07T01:03:28.046Z,0.00
2018-07-07T01:04:28.019Z,0.00
2018-07-07T01:05:27.996Z,0.00
2018-07-07T01:06:28.012Z,0.00
2018-07-07T01:07:28.014Z,0.00
2018-07-07T01:08:28.123Z,0.00
2018-07-07T01:09:27.902Z,0.00
2018-07-07T01:10:27.875Z,0.00
2018-07-07T01:11:27.834Z,0.00
2018-07-07T01:12:28.125Z,0.00
2018-07-07T01:13:27.779Z,0.00
2018-07-07T01:14:27.793Z,0.00
2018-07-07T01:15:27.721Z,0.00
2018-07-07T01:16:27.701Z,0.00
2018-07-07T01:17:28.120Z,0.00
2018-07-07T01:18:27.685Z,0.00
2018-07-07T01:19:27.633Z,0.00
2018-07-07T01:20:27.591Z,0.00
2018-07-07T01:21:28.067Z,0.00
2018-07-07T01:22:27.583Z,0.00
2018-07-07T01:23:28.069Z,0.00
2018-07-07T01:24:27.480Z,0.00
2018-07-07T01:25:27.458Z,0.00
2018-07-07T01:26:28.068Z,0.00
2018-07-07T01:27:27.437Z,0.00
2018-07-07T01:28:27.420Z,0.00
2018-07-07T01:29:28.066Z,0.00
2018-07-07T01:30:27.358Z,0.00
2018-07-07T01:31:28.065Z,0.00
2018-07-07T01:32:27.268Z,0.00
2018-07-07T01:33:27.236Z,0.00
2018-07-07T01:34:27.222Z,0.00
2018-07-07T01:35:27.622Z,0.00
2018-07-07T01:36:27.159Z,0.00
2018-07-07T01:37:27.128Z,0.00
2018-07-07T01:38:27.101Z,0.00
2018-07-07T01:39:27.073Z,0.00
2018-07-07T01:40:27.105Z,0.00
2018-07-07T01:41:27.019Z,0.00
2018-07-07T01:42:27.040Z,0.00
2018-07-07T01:43:27.571Z,0.00
2018-07-07T01:44:26.938Z,0.00
2018-07-07T01:45:26.957Z,0.00
2018-07-07T01:46:26.891Z,0.00
2018-07-07T01:47:26.864Z,0.00
2018-07-07T01:48:26.827Z,0.00
2018-07-07T01:49:27.133Z,0.00
2018-07-07T01:50:26.773Z,0.00
2018-07-07T01:51:26.790Z,0.00
2018-07-07T01:52:27.573Z,0.00
2018-07-07T01:53:26.691Z,0.00
2018-07-07T01:54:27.574Z,0.00
2018-07-07T01:55:26.679Z,0.00
2018-07-07T01:56:26.622Z,0.00
2018-07-07T01:57:27.574Z,0.00
2018-07-07T01:58:26.558Z,0.00
2018-07-07T01:59:26.533Z,0.00
2018-07-07T02:00:26.569Z,0.00
2018-07-07T02:01:27.075Z,0.00
2018-07-07T02:02:26.445Z,4.00
2018-07-07T02:03:26.417Z,4.00
2018-07-07T02:04:26.396Z,4.00
2018-07-07T02:05:26.620Z,4.00
2018-07-07T02:06:26.338Z,0.00
2018-07-07T02:07:26.349Z,0.00
2018-07-07T02:08:27.075Z,4.00
2018-07-07T02:09:26.305Z,4.00
2018-07-07T02:10:26.278Z,4.00
2018-07-07T02:11:26.207Z,4.00
2018-07-07T02:12:26.228Z,4.00
2018-07-07T02:13:26.150Z,8.00
2018-07-07T02:14:26.117Z,4.00
2018-07-07T02:15:27.075Z,4.00
2018-07-07T02:16:26.066Z,8.00
2018-07-07T02:17:26.090Z,8.00
2018-07-07T02:18:26.576Z,12.00
2018-07-07T02:19:26.037Z,12.00
2018-07-07T02:20:25.958Z,12.00
2018-07-07T02:21:25.930Z,16.00
2018-07-07T02:22:25.900Z,16.00
2018-07-07T02:23:25.884Z,20.00
2018-07-07T02:24:26.145Z,20.00
2018-07-07T02:25:25.818Z,20.00
2018-07-07T02:26:25.791Z,24.00
2018-07-07T02:27:25.767Z,28.00
2018-07-07T02:28:25.734Z,32.00
2018-07-07T02:29:25.763Z,36.00
2018-07-07T02:30:25.677Z,40.00
2018-07-07T02:31:25.654Z,44.00
2018-07-07T02:32:26.575Z,52.00
2018-07-07T02:33:25.599Z,56.00
2018-07-07T02:34:25.631Z,60.00
2018-07-07T02:35:25.585Z,68.00
2018-07-07T02:36:25.517Z,76.00
2018-07-07T02:37:26.080Z,84.00
2018-07-07T02:38:25.463Z,92.00
2018-07-07T02:39:26.078Z,100.00
2018-07-07T02:40:25.445Z,112.00
2018-07-07T02:41:26.081Z,124.00
2018-07-07T02:42:25.401Z,140.00
2018-07-07T02:43:25.326Z,152.00
2018-07-07T02:44:25.365Z,168.00
2018-07-07T02:45:26.078Z,180.00
2018-07-07T02:46:25.261Z,196.00
2018-07-07T02:47:25.260Z,216.00
2018-07-07T02:48:26.088Z,232.00
2018-07-07T02:49:25.164Z,248.00
2018-07-07T02:50:25.129Z,268.00
2018-07-07T02:51:25.103Z,288.00
2018-07-07T02:52:25.117Z,308.00
2018-07-07T02:53:25.581Z,332.00
2018-07-07T02:54:25.581Z,348.00
2018-07-07T02:55:24.986Z,376.00
2018-07-07T02:56:25.580Z,400.00
2018-07-07T02:57:24.989Z,424.00
2018-07-07T02:58:24.904Z,452.00
2018-07-07T02:59:24.882Z,480.00
2018-07-07T03:00:25.582Z,512.00
2018-07-07T03:01:24.826Z,540.00
2018-07-07T03:02:24.842Z,576.00
2018-07-07T03:03:24.818Z,612.00
2018-07-07T03:04:24.743Z,648.00
2018-07-07T03:05:24.712Z,680.00
2018-07-07T03:06:25.583Z,716.00
2018-07-07T03:07:24.701Z,756.00
2018-07-07T03:08:24.629Z,792.00
2018-07-07T03:09:25.140Z,832.00
2018-07-07T03:10:24.578Z,864.00
2018-07-07T03:11:25.082Z,900.00
2018-07-07T03:12:24.571Z,932.00
2018-07-07T03:13:24.492Z,968.00
2018-07-07T03:14:24.463Z,1008.00
2018-07-07T03:15:24.488Z,1048.00
2018-07-07T03:16:24.649Z,1092.00
2018-07-07T03:17:24.381Z,1136.00
2018-07-07T03:18:24.356Z,1180.00
2018-07-07T03:19:25.087Z,1224.00
2018-07-07T03:20:24.345Z,1260.00
2018-07-07T03:21:24.274Z,1308.00
2018-07-07T03:22:24.640Z,1344.00
2018-07-07T03:23:24.215Z,1392.00
2018-07-07T03:24:24.193Z,1444.00
2018-07-07T03:25:24.639Z,1488.00
2018-07-07T03:26:24.137Z,1536.00
2018-07-07T03:27:24.160Z,1580.00
2018-07-07T03:28:24.078Z,1628.00
2018-07-07T03:29:24.598Z,1680.00
2018-07-07T03:30:24.076Z,1732.00
2018-07-07T03:31:24.004Z,1784.00
2018-07-07T03:32:23.968Z,1844.00
2018-07-07T03:33:24.587Z,1928.00
2018-07-07T03:34:23.959Z,1944.00
2018-07-07T03:35:23.887Z,1976.00
2018-07-07T03:36:23.866Z,1996.00
2018-07-07T03:37:24.589Z,2016.00
2018-07-07T03:38:23.802Z,2036.00
2018-07-07T03:39:23.837Z,2056.00
2018-07-07T03:40:24.638Z,2068.00
2018-07-07T03:41:23.720Z,2104.00
2018-07-07T03:42:23.697Z,2168.00
2018-07-07T03:43:23.673Z,2256.00
2018-07-07T03:44:24.143Z,2356.00
2018-07-07T03:45:23.609Z,2508.00
2018-07-07T03:46:23.585Z,2592.00
2018-07-07T03:47:23.601Z,2616.00
2018-07-07T03:48:23.533Z,2688.00
2018-07-07T03:49:24.201Z,2808.00
2018-07-07T03:50:23.471Z,2956.00
2018-07-07T03:51:23.445Z,3136.00
2018-07-07T03:52:23.472Z,3400.00
2018-07-07T03:53:24.092Z,3640.00
2018-07-07T03:54:23.362Z,3772.00
2018-07-07T03:55:23.333Z,3856.00
2018-07-07T03:56:23.308Z,3920.00
2018-07-07T03:57:23.656Z,4000.00
2018-07-07T03:58:23.249Z,4136.00
2018-07-07T03:59:23.225Z,4212.00
2018-07-07T04:00:23.202Z,4152.00
2018-07-07T04:01:24.091Z,4004.00
2018-07-07T04:02:23.191Z,3860.00
2018-07-07T04:03:23.127Z,3748.00
2018-07-07T04:04:23.137Z,3600.00
2018-07-07T04:05:23.599Z,3552.00
2018-07-07T04:06:23.038Z,3664.00
2018-07-07T04:07:23.029Z,3816.00
2018-07-07T04:08:22.993Z,3872.00
2018-07-07T04:09:23.002Z,3928.00
2018-07-07T04:10:23.597Z,3992.00
2018-07-07T04:11:22.926Z,4028.00
2018-07-07T04:12:22.877Z,4104.00
2018-07-07T04:13:23.605Z,4240.00
2018-07-07T04:14:22.854Z,4248.00
2018-07-07T04:15:22.837Z,4328.00
2018-07-07T04:16:23.614Z,4440.00
2018-07-07T04:17:22.750Z,4568.00
2018-07-07T04:18:22.713Z,4860.00
2018-07-07T04:19:22.681Z,5080.00
2018-07-07T04:20:22.701Z,5224.00
2018-07-07T04:21:23.595Z,6136.00
2018-07-07T04:22:22.598Z,9704.00
2018-07-07T04:23:22.571Z,8788.00
2018-07-07T04:24:22.590Z,6328.00
2018-07-07T04:25:22.579Z,4580.00
2018-07-07T04:26:22.494Z,4580.00
2018-07-07T04:27:22.478Z,4744.00
2018-07-07T04:28:22.440Z,4892.00
2018-07-07T04:29:22.425Z,5024.00
2018-07-07T04:30:22.430Z,5156.00
2018-07-07T04:31:22.433Z,5316.00
2018-07-07T04:32:22.376Z,5580.00
2018-07-07T04:33:22.315Z,5908.00
2018-07-07T04:34:22.275Z,6124.00
2018-07-07T04:35:22.248Z,6220.00
2018-07-07T04:36:22.281Z,6364.00
2018-07-07T04:37:23.101Z,6500.00
2018-07-07T04:38:22.166Z,6664.00
2018-07-07T04:39:22.150Z,6820.00
2018-07-07T04:40:23.099Z,6988.00
2018-07-07T04:41:22.144Z,7168.00
2018-07-07T04:42:22.068Z,7444.00
2018-07-07T04:43:22.034Z,7696.00
2018-07-07T04:44:22.599Z,7920.00
2018-07-07T04:45:21.993Z,7908.00
2018-07-07T04:46:22.012Z,8036.00
2018-07-07T04:47:22.620Z,8580.00
2018-07-07T04:48:21.909Z,8996.00
2018-07-07T04:49:21.877Z,9464.00
2018-07-07T04:50:21.848Z,8996.00
2018-07-07T04:51:22.700Z,8520.00
2018-07-07T04:52:21.843Z,8320.00
2018-07-07T04:53:21.781Z,8224.00
2018-07-07T04:54:21.744Z,7916.00
2018-07-07T04:55:21.720Z,7468.00
2018-07-07T04:56:22.165Z,7320.00
2018-07-07T04:57:21.665Z,7180.00
2018-07-07T04:58:21.683Z,7000.00
2018-07-07T04:59:21.615Z,7108.00
2018-07-07T05:00:21.595Z,7084.00
2018-07-07T05:01:21.561Z,7120.00
2018-07-07T05:02:21.534Z,7152.00
2018-07-07T05:03:21.551Z,7188.00
2018-07-07T05:04:21.481Z,7704.00
2018-07-07T05:05:22.102Z,8012.00
2018-07-07T05:06:21.434Z,9308.00
2018-07-07T05:07:21.411Z,9708.00
2018-07-07T05:08:21.668Z,10276.00
2018-07-07T05:09:21.350Z,9920.00
2018-07-07T05:10:21.325Z,10588.00
2018-07-07T05:11:21.308Z,6880.00
2018-07-07T05:12:22.120Z,8764.00
2018-07-07T05:13:21.287Z,6636.00
2018-07-07T05:14:21.224Z,6304.00
2018-07-07T05:15:21.265Z,5644.00
2018-07-07T05:16:21.174Z,5804.00
2018-07-07T05:17:21.270Z,6264.00
2018-07-07T05:18:21.164Z,6784.00
2018-07-07T05:19:21.096Z,7972.00
2018-07-07T05:20:21.075Z,8016.00
2018-07-07T05:21:21.106Z,9968.00
2018-07-07T05:22:21.615Z,10748.00
2018-07-07T05:23:21.034Z,11568.00
2018-07-07T05:24:21.033Z,10228.00
2018-07-07T05:25:20.952Z,12136.00
2018-07-07T05:26:20.913Z,9508.00
2018-07-07T05:27:21.609Z,10916.00
2018-07-07T05:28:20.864Z,12060.00
2018-07-07T05:29:20.874Z,10628.00
2018-07-07T05:30:20.863Z,9720.00
2018-07-07T05:31:20.785Z,10144.00
2018-07-07T05:32:21.608Z,11468.00
2018-07-07T05:33:20.737Z,12212.00
2018-07-07T05:34:20.707Z,10736.00
2018-07-07T05:35:20.741Z,14112.00
2018-07-07T05:36:20.663Z,10168.00
2018-07-07T05:37:20.664Z,8516.00
2018-07-07T05:38:20.655Z,8756.00
2018-07-07T05:39:21.109Z,8424.00
2018-07-07T05:40:20.581Z,10232.00
2018-07-07T05:41:20.585Z,10788.00
2018-07-07T05:42:20.552Z,12016.00
2018-07-07T05:43:20.520Z,11224.00
2018-07-07T05:44:20.458Z,9060.00
2018-07-07T05:45:20.433Z,6884.00
2018-07-07T05:46:20.458Z,8624.00
2018-07-07T05:47:20.425Z,8604.00
2018-07-07T05:48:20.363Z,12056.00
2018-07-07T05:49:20.337Z,11948.00
2018-07-07T05:50:20.325Z,11224.00
2018-07-07T05:51:20.289Z,9212.00
2018-07-07T05:52:20.308Z,6436.00
2018-07-07T05:53:20.278Z,7812.00
2018-07-07T05:54:20.214Z,10952.00
2018-07-07T05:55:20.182Z,12684.00
2018-07-07T05:56:20.176Z,9824.00
2018-07-07T05:57:20.161Z,7276.00
2018-07-07T05:58:20.169Z,6288.00
2018-07-07T05:59:20.092Z,6044.00
2018-07-07T06:00:20.060Z,6496.00
2018-07-07T06:01:20.035Z,7416.00
2018-07-07T06:02:20.068Z,7772.00
2018-07-07T06:03:19.983Z,6276.00
2018-07-07T06:04:19.961Z,8076.00
2018-07-07T06:05:19.933Z,11380.00
2018-07-07T06:06:19.909Z,11572.00
2018-07-07T06:07:20.174Z,7164.00
2018-07-07T06:08:19.905Z,8688.00
2018-07-07T06:09:19.833Z,9568.00
2018-07-07T06:10:19.812Z,8620.00
2018-07-07T06:11:19.781Z,7416.00
2018-07-07T06:12:19.770Z,7652.00
2018-07-07T06:13:19.774Z,7096.00
2018-07-07T06:14:19.741Z,7640.00
2018-07-07T06:15:19.681Z,6704.00
2018-07-07T06:16:19.704Z,5920.00
2018-07-07T06:17:19.632Z,6560.00
2018-07-07T06:18:19.620Z,6968.00
2018-07-07T06:19:19.625Z,7208.00
2018-07-07T06:20:19.598Z,7380.00
2018-07-07T06:21:19.534Z,7272.00
2018-07-07T06:22:19.505Z,7092.00
2018-07-07T06:23:19.486Z,6588.00
2018-07-07T06:24:19.503Z,6900.00
2018-07-07T06:25:19.471Z,8236.00
2018-07-07T06:26:19.412Z,6772.00
2018-07-07T06:27:19.383Z,6788.00
2018-07-07T06:28:19.359Z,7416.00
2018-07-07T06:29:19.378Z,8176.00
2018-07-07T06:30:19.327Z,7952.00
2018-07-07T06:31:19.282Z,6888.00
2018-07-07T06:32:19.676Z,6884.00
2018-07-07T06:33:19.236Z,5652.00
2018-07-07T06:34:19.343Z,6272.00
2018-07-07T06:35:19.222Z,6024.00
2018-07-07T06:36:19.154Z,7488.00
2018-07-07T06:37:19.230Z,8908.00
2018-07-07T06:38:19.142Z,7860.00
2018-07-07T06:39:19.081Z,6456.00
2018-07-07T06:40:19.108Z,6304.00
2018-07-07T06:41:19.027Z,6932.00
2018-07-07T06:42:19.641Z,7008.00
2018-07-07T06:43:18.974Z,7328.00
2018-07-07T06:44:18.950Z,7708.00
2018-07-07T06:45:18.973Z,7456.00
2018-07-07T06:46:19.623Z,7008.00
2018-07-07T06:47:18.876Z,6040.00
2018-07-07T06:48:19.171Z,6428.00
2018-07-07T06:49:18.826Z,6680.00
2018-07-07T06:50:19.626Z,7232.00
2018-07-07T06:51:18.821Z,6764.00
2018-07-07T06:52:18.752Z,6944.00
2018-07-07T06:53:18.734Z,7640.00
2018-07-07T06:54:18.708Z,7400.00
2018-07-07T06:55:19.183Z,6176.00
2018-07-07T06:56:18.653Z,6020.00
2018-07-07T06:57:18.663Z,6156.00
2018-07-07T06:58:18.664Z,6208.00
2018-07-07T06:59:18.576Z,6296.00
2018-07-07T07:00:18.551Z,6772.00
2018-07-07T07:01:18.542Z,7644.00
2018-07-07T07:02:18.504Z,8880.00
2018-07-07T07:03:18.528Z,8904.00
2018-07-07T07:04:18.464Z,7812.00
2018-07-07T07:05:18.425Z,7200.00
2018-07-07T07:06:18.401Z,6512.00
2018-07-07T07:07:18.380Z,6208.00
2018-07-07T07:08:18.409Z,6408.00
2018-07-07T07:09:18.330Z,6624.00
2018-07-07T07:10:18.304Z,6684.00
2018-07-07T07:11:18.285Z,6820.00
2018-07-07T07:12:18.256Z,6996.00
2018-07-07T07:13:18.273Z,6896.00
2018-07-07T07:14:18.243Z,6472.00
2018-07-07T07:15:18.227Z,5732.00
2018-07-07T07:16:18.170Z,5668.00
2018-07-07T07:17:18.133Z,5512.00
2018-07-07T07:18:18.110Z,5476.00
2018-07-07T07:19:18.133Z,5264.00
2018-07-07T07:20:18.108Z,5300.00
2018-07-07T07:21:18.031Z,5448.00
2018-07-07T07:22:18.009Z,5560.00
2018-07-07T07:23:17.985Z,5272.00
2018-07-07T07:24:18.006Z,5604.00
2018-07-07T07:25:17.974Z,5744.00
2018-07-07T07:26:17.998Z,5888.00
2018-07-07T07:27:17.929Z,5880.00
2018-07-07T07:28:17.860Z,5912.00
2018-07-07T07:29:17.860Z,5996.00
2018-07-07T07:30:17.810Z,6088.00
2018-07-07T07:31:17.800Z,6188.00
2018-07-07T07:32:17.817Z,6296.00
2018-07-07T07:33:17.739Z,6416.00
2018-07-07T07:34:17.713Z,6460.00
2018-07-07T07:35:17.689Z,6572.00
2018-07-07T07:36:17.704Z,6660.00
2018-07-07T07:37:17.688Z,7000.00
2018-07-07T07:38:18.135Z,7244.00
2018-07-07T07:39:17.621Z,7480.00
2018-07-07T07:40:17.568Z,7564.00
2018-07-07T07:41:17.544Z,7664.00
2018-07-07T07:42:17.565Z,7824.00
2018-07-07T07:43:17.554Z,8144.00
2018-07-07T07:44:17.472Z,8680.00
2018-07-07T07:45:17.445Z,9284.00
2018-07-07T07:46:17.421Z,9988.00
2018-07-07T07:47:17.695Z,10732.00
2018-07-07T07:48:17.375Z,11416.00
2018-07-07T07:49:17.364Z,11960.00
2018-07-07T07:50:17.326Z,12356.00
2018-07-07T07:51:17.356Z,12548.00
2018-07-07T07:52:17.316Z,12656.00
2018-07-07T07:53:17.258Z,12776.00
2018-07-07T07:54:17.236Z,12944.00
2018-07-07T07:55:17.207Z,13120.00
2018-07-07T07:56:17.184Z,13008.00
2018-07-07T07:57:17.214Z,13260.00
2018-07-07T07:58:17.138Z,13312.00
2018-07-07T07:59:17.116Z,13376.00
2018-07-07T08:00:17.088Z,13348.00
2018-07-07T08:01:17.071Z,13412.00
2018-07-07T08:02:17.100Z,13428.00
2018-07-07T08:03:17.049Z,13456.00
2018-07-07T08:04:16.996Z,13548.00
2018-07-07T08:05:16.976Z,13452.00
2018-07-07T08:06:16.950Z,13272.00
2018-07-07T08:07:16.990Z,12980.00
2018-07-07T08:08:16.909Z,12344.00
2018-07-07T08:09:16.890Z,11636.00
2018-07-07T08:10:16.914Z,11164.00
2018-07-07T08:11:16.852Z,10700.00
2018-07-07T08:12:17.213Z,10472.00
2018-07-07T08:13:16.798Z,10076.00
2018-07-07T08:14:16.791Z,9772.00
2018-07-07T08:15:16.750Z,9444.00
2018-07-07T08:16:16.727Z,8784.00
2018-07-07T08:17:17.203Z,8168.00
2018-07-07T08:18:16.684Z,7472.00
2018-07-07T08:19:16.715Z,6808.00
2018-07-07T08:20:16.635Z,6128.00
2018-07-07T08:21:16.628Z,5628.00
2018-07-07T08:22:17.147Z,5468.00
2018-07-07T08:23:16.617Z,5080.00
2018-07-07T08:24:16.548Z,4964.00
2018-07-07T08:25:16.525Z,4816.00
2018-07-07T08:26:16.544Z,4872.00
2018-07-07T08:27:16.507Z,5040.00
2018-07-07T08:28:16.455Z,5072.00
2018-07-07T08:29:16.477Z,5004.00
2018-07-07T08:30:16.424Z,4804.00
2018-07-07T08:31:16.384Z,4764.00
2018-07-07T08:32:16.371Z,5016.00
2018-07-07T08:33:16.386Z,5152.00
2018-07-07T08:34:16.316Z,5228.00
2018-07-07T08:35:16.290Z,5332.00
2018-07-07T08:36:16.269Z,5392.00
2018-07-07T08:37:16.245Z,5440.00
2018-07-07T08:38:16.272Z,5628.00
2018-07-07T08:39:16.205Z,5928.00
2018-07-07T08:40:16.176Z,6696.00
2018-07-07T08:41:16.151Z,7416.00
2018-07-07T08:42:16.130Z,8096.00
2018-07-07T08:43:16.158Z,8568.00
2018-07-07T08:44:16.086Z,8908.00
2018-07-07T08:45:16.067Z,9256.00
2018-07-07T08:46:16.033Z,9660.00
2018-07-07T08:47:16.024Z,10076.00
2018-07-07T08:48:16.035Z,10424.00
2018-07-07T08:49:16.001Z,10508.00
2018-07-07T08:50:15.991Z,10276.00
2018-07-07T08:51:15.921Z,9792.00
2018-07-07T08:52:15.936Z,9292.00
2018-07-07T08:53:15.872Z,8792.00
2018-07-07T08:54:15.850Z,8308.00
2018-07-07T08:55:15.875Z,8084.00
2018-07-07T08:56:15.805Z,7984.00
2018-07-07T08:57:15.785Z,7792.00
2018-07-07T08:58:15.802Z,7224.00
2018-07-07T08:59:15.739Z,6944.00
2018-07-07T09:00:15.714Z,6800.00
2018-07-07T09:01:15.737Z,6940.00
2018-07-07T09:02:15.681Z,6876.00
2018-07-07T09:03:15.651Z,6464.00
2018-07-07T09:04:15.632Z,6068.00
2018-07-07T09:05:16.157Z,5812.00
2018-07-07T09:06:15.584Z,5544.00
2018-07-07T09:07:15.604Z,5400.00
2018-07-07T09:08:15.536Z,5372.00
2018-07-07T09:09:15.516Z,5200.00
2018-07-07T09:10:15.498Z,5100.00
2018-07-07T09:11:15.512Z,5104.00
2018-07-07T09:12:15.445Z,5004.00
2018-07-07T09:13:15.501Z,4888.00
2018-07-07T09:14:15.404Z,4860.00
2018-07-07T09:15:15.401Z,5132.00
2018-07-07T09:16:15.407Z,5416.00
2018-07-07T09:17:15.335Z,5492.00
2018-07-07T09:18:15.312Z,5604.00
2018-07-07T09:19:15.291Z,5608.00
2018-07-07T09:20:15.308Z,5656.00
2018-07-07T09:21:15.312Z,5660.00
2018-07-07T09:22:15.219Z,5616.00
2018-07-07T09:23:15.211Z,5592.00
2018-07-07T09:24:15.175Z,5572.00
2018-07-07T09:25:15.218Z,5596.00
2018-07-07T09:26:15.132Z,5532.00
2018-07-07T09:27:15.113Z,5420.00
2018-07-07T09:28:15.097Z,5280.00
2018-07-07T09:29:15.064Z,5016.00
2018-07-07T09:30:15.092Z,5104.00
2018-07-07T09:31:15.063Z,4960.00
2018-07-07T09:32:15.661Z,5020.00
2018-07-07T09:33:14.974Z,5300.00
2018-07-07T09:34:14.953Z,5320.00
2018-07-07T09:35:14.969Z,5264.00
2018-07-07T09:36:14.977Z,5084.00
2018-07-07T09:37:16.570Z,4828.00
2018-07-07T09:38:14.863Z,4876.00
2018-07-07T09:39:14.895Z,4776.00
2018-07-07T09:40:14.821Z,4700.00
2018-07-07T09:41:14.844Z,4588.00
2018-07-07T09:42:15.665Z,4648.00
2018-07-07T09:43:14.772Z,4496.00
2018-07-07T09:44:14.739Z,4404.00
2018-07-07T09:45:14.709Z,4316.00
2018-07-07T09:46:14.726Z,4252.00
2018-07-07T09:47:14.702Z,4144.00
2018-07-07T09:48:14.641Z,4140.00
2018-07-07T09:49:14.620Z,4144.00
2018-07-07T09:50:14.597Z,4140.00
2018-07-07T09:51:14.622Z,4120.00
2018-07-07T09:52:14.564Z,4112.00
2018-07-07T09:53:14.541Z,4052.00
2018-07-07T09:54:14.518Z,3992.00
2018-07-07T09:55:14.493Z,4028.00
2018-07-07T09:56:14.531Z,4044.00
2018-07-07T09:57:14.486Z,4080.00
2018-07-07T09:58:14.420Z,4048.00
2018-07-07T09:59:14.397Z,4048.00
2018-07-07T10:00:14.379Z,4048.00
2018-07-07T10:01:14.395Z,4052.00
2018-07-07T10:02:14.338Z,4048.00
2018-07-07T10:03:14.331Z,4024.00
2018-07-07T10:04:14.299Z,4032.00
2018-07-07T10:05:14.316Z,3976.00
2018-07-07T10:06:14.245Z,3988.00
2018-07-07T10:07:14.273Z,3992.00
2018-07-07T10:08:14.200Z,4008.00
2018-07-07T10:09:14.175Z,4032.00
2018-07-07T10:10:14.154Z,3952.00
2018-07-07T10:11:14.147Z,4024.00
2018-07-07T10:12:14.197Z,4016.00
2018-07-07T10:13:14.090Z,4032.00
2018-07-07T10:14:14.063Z,4048.00
2018-07-07T10:15:14.047Z,4076.00
2018-07-07T10:16:14.071Z,4096.00
2018-07-07T10:17:14.000Z,4092.00
2018-07-07T10:18:14.039Z,4108.00
2018-07-07T10:19:13.956Z,4092.00
2018-07-07T10:20:13.941Z,4068.00
2018-07-07T10:21:13.963Z,4056.00
2018-07-07T10:22:13.892Z,4040.00
2018-07-07T10:23:13.921Z,4032.00
2018-07-07T10:24:13.849Z,4008.00
2018-07-07T10:25:13.827Z,3988.00
2018-07-07T10:26:13.844Z,3968.00
2018-07-07T10:27:13.784Z,3968.00
2018-07-07T10:28:13.807Z,3984.00
2018-07-07T10:29:13.763Z,4000.00
2018-07-07T10:30:13.722Z,4028.00
2018-07-07T10:31:13.709Z,4028.00
2018-07-07T10:32:13.678Z,4000.00
2018-07-07T10:33:13.698Z,3968.00
2018-07-07T10:34:13.692Z,3936.00
2018-07-07T10:35:13.607Z,3936.00
2018-07-07T10:36:13.596Z,3920.00
2018-07-07T10:37:13.570Z,3900.00
2018-07-07T10:38:13.628Z,3908.00
2018-07-07T10:39:13.527Z,3944.00
2018-07-07T10:40:13.504Z,3932.00
2018-07-07T10:41:13.492Z,3904.00
2018-07-07T10:42:13.471Z,3888.00
2018-07-07T10:43:13.501Z,3904.00
2018-07-07T10:44:13.432Z,3896.00
2018-07-07T10:45:13.408Z,3892.00
2018-07-07T10:46:13.459Z,3888.00
2018-07-07T10:47:13.399Z,3900.00
2018-07-07T10:48:13.330Z,3896.00
2018-07-07T10:49:13.351Z,3900.00
2018-07-07T10:50:13.338Z,3924.00
2018-07-07T10:51:13.267Z,3964.00
2018-07-07T10:52:13.251Z,3996.00
2018-07-07T10:53:13.222Z,4004.00
2018-07-07T10:54:13.202Z,4008.00
2018-07-07T10:55:13.236Z,4028.00
2018-07-07T10:56:13.167Z,4044.00
2018-07-07T10:57:13.173Z,4048.00
2018-07-07T10:58:13.117Z,4024.00
2018-07-07T10:59:13.108Z,4008.00
2018-07-07T11:00:13.119Z,3980.00
2018-07-07T11:01:13.051Z,3952.00
2018-07-07T11:02:13.032Z,3940.00
2018-07-07T11:03:13.052Z,3900.00
2018-07-07T11:04:13.063Z,3892.00
2018-07-07T11:05:13.011Z,3904.00
2018-07-07T11:06:12.963Z,3892.00
2018-07-07T11:07:12.926Z,3908.00
2018-07-07T11:08:13.690Z,3904.00
2018-07-07T11:09:12.888Z,3880.00
2018-07-07T11:10:12.941Z,3848.00
2018-07-07T11:11:12.839Z,3868.00
2018-07-07T11:12:12.824Z,3868.00
2018-07-07T11:13:12.804Z,3908.00
2018-07-07T11:14:12.778Z,3896.00
2018-07-07T11:15:12.808Z,3884.00
2018-07-07T11:16:12.735Z,3888.00
2018-07-07T11:17:12.728Z,3868.00
2018-07-07T11:18:14.942Z,3868.00
2018-07-07T11:19:12.676Z,3860.00
2018-07-07T11:20:12.662Z,3852.00
2018-07-07T11:21:12.681Z,3868.00
2018-07-07T11:22:12.613Z,3868.00
2018-07-07T11:23:12.654Z,3876.00
2018-07-07T11:24:12.568Z,3880.00
2018-07-07T11:25:12.549Z,3884.00
2018-07-07T11:26:12.536Z,3872.00
2018-07-07T11:27:12.516Z,3860.00
2018-07-07T11:28:12.544Z,3856.00
2018-07-07T11:29:12.464Z,3848.00
2018-07-07T11:30:12.450Z,3848.00
2018-07-07T11:31:12.424Z,3860.00
2018-07-07T11:32:12.405Z,3876.00
2018-07-07T11:33:12.424Z,3876.00
2018-07-07T11:34:12.403Z,3884.00
2018-07-07T11:35:12.339Z,3896.00
2018-07-07T11:36:12.346Z,3896.00
2018-07-07T11:37:12.303Z,3940.00
2018-07-07T11:38:12.285Z,3952.00
2018-07-07T11:39:12.301Z,3972.00
2018-07-07T11:40:12.239Z,4012.00
2018-07-07T11:41:12.216Z,4048.00
2018-07-07T11:42:12.231Z,4092.00
2018-07-07T11:43:12.181Z,4108.00
2018-07-07T11:44:12.201Z,4096.00
2018-07-07T11:45:12.147Z,4116.00
2018-07-07T11:46:12.114Z,4180.00
2018-07-07T11:47:12.101Z,4252.00
2018-07-07T11:48:12.076Z,4292.00
2018-07-07T11:49:12.099Z,4352.00
2018-07-07T11:50:12.053Z,4388.00
2018-07-07T11:51:12.767Z,4452.00
2018-07-07T11:52:12.818Z,4560.00
2018-07-07T11:53:12.012Z,4676.00
2018-07-07T11:54:11.972Z,4836.00
2018-07-07T11:55:11.980Z,5052.00
2018-07-07T11:56:11.913Z,5264.00
2018-07-07T11:57:11.994Z,5608.00
2018-07-07T11:58:11.871Z,5960.00
2018-07-07T11:59:11.847Z,6252.00
2018-07-07T12:00:11.827Z,6400.00
2018-07-07T12:01:11.805Z,6204.00
2018-07-07T12:02:11.843Z,5904.00
2018-07-07T12:03:11.767Z,5616.00
2018-07-07T12:04:11.745Z,5388.00
2018-07-07T12:05:11.730Z,5140.00
2018-07-07T12:06:11.720Z,5172.00
2018-07-07T12:07:11.753Z,5240.00
2018-07-07T12:08:13.991Z,5276.00
2018-07-07T12:09:11.649Z,5292.00
2018-07-07T12:10:11.675Z,5316.00
2018-07-07T12:11:11.654Z,5376.00
2018-07-07T12:12:11.587Z,5280.00
2018-07-07T12:13:11.568Z,5248.00
2018-07-07T12:14:11.585Z,5128.00
2018-07-07T12:15:11.584Z,4876.00
2018-07-07T12:16:11.502Z,4660.00
2018-07-07T12:17:11.493Z,4464.00
2018-07-07T12:18:11.463Z,4224.00